createdAt,value
2022-07-29T00:04:09.360Z,19.80
2022-07-29T00:09:13.447Z,19.80
2022-07-29T00:14:17.543Z,19.80
2022-07-29T00:19:22.816Z,19.80
2022-07-29T00:24:28.613Z,19.80
2022-07-29T00:29:34.340Z,19.70
2022-07-29T00:34:57.139Z,19.70
2022-07-29T00:40:01.550Z,19.70
2022-07-29T00:45:06.219Z,19.60
2022-07-29T00:50:13.837Z,19.60
2022-07-29T00:55:18.580Z,19.60
2022-07-29T01:00:24.338Z,19.60
2022-07-29T01:05:48.154Z,19.50
2022-07-29T01:10:55.101Z,19.50
2022-07-29T01:16:05.280Z,19.50
2022-07-29T01:21:38.278Z,19.50
2022-07-29T01:26:50.163Z,19.50
2022-07-29T01:32:00.863Z,19.40
2022-07-29T01:37:13.761Z,19.50
2022-07-29T01:42:25.577Z,19.40
2022-07-29T01:47:36.962Z,19.40
2022-07-29T01:52:44.992Z,19.40
2022-07-29T01:57:51.045Z,19.40
2022-07-29T02:03:00.702Z,19.30
2022-07-29T02:08:05.611Z,19.30
2022-07-29T02:13:11.679Z,19.30
2022-07-29T02:18:19.369Z,19.30
2022-07-29T02:23:25.446Z,19.30
2022-07-29T02:28:31.774Z,19.20
2022-07-29T02:33:37.909Z,19.20
2022-07-29T02:38:53.725Z,19.10
2022-07-29T02:44:00.683Z,19.10
2022-07-29T02:49:12.128Z,19.10
2022-07-29T02:54:26.011Z,19.10
2022-07-29T02:59:32.787Z,19.00
2022-07-29T03:04:38.985Z,19.00
2022-07-29T03:09:44.892Z,19.00
2022-07-29T03:14:49.743Z,19.00
2022-07-29T03:19:55.315Z,18.90
2022-07-29T03:24:59.067Z,18.80
2022-07-29T03:30:02.732Z,18.80
2022-07-29T03:35:09.445Z,18.80
2022-07-29T03:40:20.958Z,18.80
2022-07-29T03:45:26.925Z,18.70
2022-07-29T03:50:34.339Z,18.70
2022-07-29T03:55:43.290Z,18.70
2022-07-29T04:00:48.464Z,18.60
2022-07-29T04:06:06.688Z,18.60
2022-07-29T04:11:10.719Z,18.50
2022-07-29T04:16:14.513Z,18.50
2022-07-29T04:21:19.641Z,18.50
2022-07-29T04:26:23.621Z,18.40
2022-07-29T04:31:27.410Z,18.40
2022-07-29T04:36:32.735Z,18.30
2022-07-29T04:41:36.663Z,18.30
2022-07-29T04:46:40.497Z,18.30
2022-07-29T04:51:45.686Z,18.30
2022-07-29T04:56:49.688Z,18.20
2022-07-29T05:01:53.454Z,18.20
2022-07-29T05:06:58.617Z,18.20
2022-07-29T05:12:02.815Z,18.10
2022-07-29T05:17:06.876Z,18.10
2022-07-29T05:22:12.021Z,18.10
2022-07-29T05:27:15.815Z,18.10
2022-07-29T05:32:19.577Z,18.10
2022-07-29T05:37:24.855Z,18.10
2022-07-29T05:42:28.899Z,18.10
2022-07-29T05:47:32.831Z,18.10
2022-07-29T05:52:38.074Z,18.10
2022-07-29T05:57:41.863Z,18.10
2022-07-29T06:02:48.465Z,18.00
2022-07-29T06:07:54.193Z,18.00
2022-07-29T06:12:58.091Z,18.00
2022-07-29T06:18:02.277Z,18.00
2022-07-29T06:23:08.508Z,18.00
2022-07-29T06:28:12.558Z,18.00
2022-07-29T06:33:19.976Z,18.00
2022-07-29T06:38:31.686Z,18.00
2022-07-29T06:43:42.674Z,18.00
2022-07-29T06:48:54.549Z,18.00
2022-07-29T06:54:02.635Z,18.00
2022-07-29T06:59:07.737Z,18.00
2022-07-29T07:04:13.045Z,18.10
2022-07-29T07:09:18.420Z,18.20
2022-07-29T07:14:22.325Z,18.30
2022-07-29T07:19:26.438Z,18.40
2022-07-29T07:24:32.041Z,18.50
2022-07-29T07:29:35.889Z,18.60
2022-07-29T07:34:39.925Z,18.70
2022-07-29T07:39:45.131Z,18.80
2022-07-29T07:45:12.185Z,18.90
2022-07-29T07:50:18.657Z,19.10
2022-07-29T07:55:28.203Z,19.10
2022-07-29T08:00:33.239Z,19.20
2022-07-29T08:05:37.808Z,19.30
2022-07-29T08:10:58.403Z,19.40
2022-07-29T08:16:03.019Z,19.40
2022-07-29T08:21:07.782Z,19.60
2022-07-29T08:26:15.371Z,19.70
2022-07-29T08:31:19.789Z,19.70
2022-07-29T08:36:23.733Z,19.80
2022-07-29T08:41:29.465Z,20.00
2022-07-29T08:46:33.339Z,20.10
2022-07-29T08:51:49.363Z,20.20
2022-07-29T08:56:55.374Z,20.30
2022-07-29T09:02:01.707Z,20.40
2022-07-29T09:07:08.138Z,20.50
2022-07-29T09:12:15.157Z,20.70
2022-07-29T09:17:51.923Z,20.80
2022-07-29T09:22:55.816Z,20.90
2022-07-29T09:28:08.021Z,21.10
2022-07-29T09:33:12.390Z,21.30
2022-07-29T09:38:16.463Z,21.60
2022-07-29T09:43:21.606Z,21.90
2022-07-29T09:48:27.041Z,22.20
2022-07-29T09:53:35.110Z,22.60
2022-07-29T09:58:40.189Z,22.90
2022-07-29T10:03:53.962Z,23.30
2022-07-29T10:09:08.609Z,23.60
2022-07-29T10:14:14.287Z,23.90
2022-07-29T10:19:19.051Z,24.20
2022-07-29T10:24:23.624Z,24.40
2022-07-29T10:29:29.900Z,24.70
2022-07-29T10:34:46.225Z,25.00
2022-07-29T10:39:55.767Z,25.20
2022-07-29T10:45:02.828Z,25.40
2022-07-29T10:50:11.667Z,25.60
2022-07-29T10:55:35.875Z,25.80
2022-07-29T11:00:41.496Z,26.00
2022-07-29T11:05:59.896Z,26.20
2022-07-29T11:11:35.011Z,26.30
2022-07-29T11:17:06.520Z,26.50
2022-07-29T11:22:12.203Z,26.60
2022-07-29T11:27:23.193Z,26.70
2022-07-29T11:32:38.587Z,26.80
2022-07-29T11:37:45.729Z,27.00
2022-07-29T11:42:52.171Z,27.10
2022-07-29T11:48:19.616Z,27.20
2022-07-29T11:53:24.394Z,27.30
2022-07-29T11:58:29.467Z,27.30
2022-07-29T12:03:36.783Z,27.40
2022-07-29T12:08:59.531Z,27.50
2022-07-29T12:14:03.898Z,27.60
2022-07-29T12:19:09.451Z,27.60
2022-07-29T12:24:13.287Z,27.60
2022-07-29T12:29:20.483Z,27.60
2022-07-29T12:34:39.550Z,27.60
2022-07-29T12:39:43.441Z,27.60
2022-07-29T12:44:48.584Z,27.60
2022-07-29T12:50:10.658Z,27.60
2022-07-29T12:55:14.528Z,27.70
2022-07-29T13:00:18.983Z,27.70
2022-07-29T13:05:25.301Z,27.70
2022-07-29T13:10:30.396Z,27.50
2022-07-29T13:15:34.869Z,27.40
2022-07-29T13:20:40.121Z,27.20
2022-07-29T13:25:43.769Z,27.10
2022-07-29T13:30:47.753Z,27.00
2022-07-29T13:35:52.978Z,26.90
2022-07-29T13:40:56.866Z,26.80
2022-07-29T13:46:00.719Z,26.70
2022-07-29T13:51:06.339Z,26.60
2022-07-29T13:56:10.471Z,26.50
2022-07-29T14:01:14.478Z,26.40
2022-07-29T14:06:20.154Z,26.30
2022-07-29T14:11:26.286Z,26.20
2022-07-29T14:16:30.158Z,26.10
2022-07-29T14:21:35.661Z,26.10
2022-07-29T14:26:40.200Z,26.10
2022-07-29T14:31:50.239Z,26.00
2022-07-29T14:36:56.501Z,26.00
2022-07-29T14:42:01.114Z,25.90
2022-07-29T14:47:07.541Z,25.90
2022-07-29T14:52:17.242Z,25.90
2022-07-29T14:57:20.994Z,25.90
2022-07-29T15:02:40.069Z,25.80
2022-07-29T15:07:50.000Z,25.80
2022-07-29T15:12:53.784Z,25.70
2022-07-29T15:17:57.469Z,25.70
2022-07-29T15:23:02.713Z,25.60
2022-07-29T15:28:08.014Z,25.50
2022-07-29T15:33:11.985Z,25.50
2022-07-29T15:38:18.575Z,25.50
2022-07-29T15:43:22.365Z,25.50
2022-07-29T15:48:26.467Z,25.40
2022-07-29T15:53:31.561Z,25.30
2022-07-29T15:58:36.811Z,25.20
2022-07-29T16:03:45.705Z,25.20
2022-07-29T16:08:51.234Z,25.10
2022-07-29T16:13:54.960Z,25.00
2022-07-29T16:18:59.553Z,24.90
2022-07-29T16:24:05.794Z,24.90
2022-07-29T16:29:09.497Z,24.90
2022-07-29T16:34:15.852Z,24.90
2022-07-29T16:39:21.583Z,24.90
2022-07-29T16:44:25.354Z,24.80
2022-07-29T16:49:29.415Z,24.80
2022-07-29T16:54:34.633Z,24.70
2022-07-29T16:59:43.581Z,24.70
2022-07-29T17:04:47.462Z,24.70
2022-07-29T17:09:55.599Z,24.60
2022-07-29T17:15:00.205Z,24.60
2022-07-29T17:20:04.566Z,24.50
2022-07-29T17:25:11.678Z,24.50
2022-07-29T17:30:24.474Z,24.50
2022-07-29T17:35:45.401Z,24.40
2022-07-29T17:40:50.809Z,24.40
2022-07-29T17:45:59.264Z,24.30
2022-07-29T17:51:03.644Z,24.30
2022-07-29T17:56:08.831Z,24.20
2022-07-29T18:01:12.717Z,24.20
2022-07-29T18:06:16.543Z,24.10
2022-07-29T18:11:21.601Z,24.00
2022-07-29T18:16:25.426Z,24.00
2022-07-29T18:21:45.956Z,23.90
2022-07-29T18:26:54.842Z,23.90
2022-07-29T18:32:02.242Z,23.90
2022-07-29T18:37:06.087Z,23.80
2022-07-29T18:42:11.326Z,23.70
2022-07-29T18:47:15.050Z,23.70
2022-07-29T18:52:19.047Z,23.70
2022-07-29T18:57:55.770Z,23.60
2022-07-29T19:02:48.152Z,23.60
2022-07-29T19:07:52.162Z,23.50
2022-07-29T19:12:57.932Z,23.50
2022-07-29T19:18:01.660Z,23.40
2022-07-29T19:23:05.513Z,23.40
2022-07-29T19:28:11.070Z,23.30
2022-07-29T19:33:17.692Z,23.20
2022-07-29T19:38:21.657Z,23.10
2022-07-29T19:43:49.705Z,23.10
2022-07-29T19:48:51.362Z,23.00
2022-07-29T19:53:55.191Z,22.90
2022-07-29T19:59:02.025Z,22.90
2022-07-29T20:04:06.463Z,22.80
2022-07-29T20:09:17.069Z,22.80
2022-07-29T20:14:25.934Z,22.70
2022-07-29T20:19:34.041Z,22.60
2022-07-29T20:24:38.083Z,22.60
2022-07-29T20:29:43.273Z,22.50
2022-07-29T20:34:55.242Z,22.50
2022-07-29T20:39:59.725Z,22.40
2022-07-29T20:45:08.562Z,22.30
2022-07-29T20:50:12.856Z,22.30
2022-07-29T20:55:16.528Z,22.20
2022-07-29T21:00:21.649Z,22.20
2022-07-29T21:05:25.674Z,22.20
2022-07-29T21:10:29.473Z,22.10
2022-07-29T21:15:36.693Z,22.10
2022-07-29T21:20:44.100Z,22.00
2022-07-29T21:25:48.059Z,21.90
2022-07-29T21:30:53.979Z,21.90
2022-07-29T21:36:47.383Z,21.80
2022-07-29T21:41:48.151Z,21.80
2022-07-29T21:46:54.671Z,21.70
2022-07-29T21:51:59.182Z,21.70
2022-07-29T21:57:04.687Z,21.70
2022-07-29T22:02:10.412Z,21.60
2022-07-29T22:07:15.337Z,21.60
2022-07-29T22:12:19.801Z,21.60
2022-07-29T22:17:25.266Z,21.50
2022-07-29T22:22:29.445Z,21.50
2022-07-29T22:27:34.968Z,21.40
2022-07-29T22:32:40.081Z,21.40
2022-07-29T22:37:43.778Z,21.40
2022-07-29T22:42:47.493Z,21.30
2022-07-29T22:47:59.006Z,21.30
2022-07-29T22:53:03.148Z,21.20
2022-07-29T22:58:06.877Z,21.20
2022-07-29T23:03:12.035Z,21.10
2022-07-29T23:08:15.743Z,21.20
2022-07-29T23:13:19.487Z,21.10
2022-07-29T23:18:24.590Z,21.00
2022-07-29T23:23:32.220Z,21.10
2022-07-29T23:28:36.252Z,21.00
2022-07-29T23:33:41.323Z,21.00
2022-07-29T23:38:46.681Z,20.90
2022-07-29T23:43:51.323Z,20.80
2022-07-29T23:48:56.433Z,20.80
2022-07-29T23:54:00.213Z,20.80
2022-07-29T23:59:06.001Z,20.80
